createdAt,value
2022-11-11T00:00:06.907Z,2.50
2022-11-11T00:05:38.592Z,2.60
2022-11-11T00:11:10.577Z,2.75
2022-11-11T00:16:42.085Z,2.75
2022-11-11T00:22:14.130Z,2.90
2022-11-11T00:27:46.229Z,2.95
2022-11-11T00:33:17.896Z,2.95
2022-11-11T00:38:49.766Z,3.00
2022-11-11T00:44:21.495Z,3.05
2022-11-11T00:49:53.140Z,3.15
2022-11-11T00:55:24.935Z,3.30
2022-11-11T01:00:56.989Z,3.40
2022-11-11T01:06:28.356Z,3.45
2022-11-11T01:11:59.979Z,3.50
2022-11-11T01:17:31.802Z,3.60
2022-11-11T01:23:03.625Z,3.85
2022-11-11T01:28:35.342Z,3.85
2022-11-11T01:34:07.221Z,3.90
2022-11-11T01:39:39.449Z,3.95
2022-11-11T01:45:11.000Z,4.05
2022-11-11T01:50:42.711Z,4.10
2022-11-11T01:56:14.413Z,4.20
2022-11-11T02:01:46.381Z,4.35
2022-11-11T02:07:18.001Z,4.45
2022-11-11T02:15:03.207Z,1.00
2022-11-11T02:20:35.026Z,1.48
2022-11-11T02:26:06.556Z,1.31
2022-11-11T02:37:08.167Z,1.38
2022-11-11T02:42:39.976Z,1.47
2022-11-11T02:48:11.830Z,1.54
2022-11-11T02:53:43.701Z,1.72
2022-11-11T02:59:15.679Z,1.74
2022-11-11T03:04:47.363Z,1.67
2022-11-11T03:10:19.238Z,1.96
2022-11-11T03:15:51.052Z,1.96
2022-11-11T03:26:54.730Z,1.75
2022-11-11T03:32:26.452Z,1.76
2022-11-11T03:37:58.325Z,1.84
2022-11-11T03:43:30.338Z,1.90
2022-11-11T03:49:02.111Z,1.91
2022-11-11T03:54:33.812Z,1.86
2022-11-11T04:00:12.321Z,1.90
2022-11-11T04:05:37.417Z,2.05
2022-11-11T04:11:09.240Z,2.30
2022-11-11T04:22:10.549Z,2.60
2022-11-11T04:27:42.199Z,2.70
2022-11-11T04:33:13.883Z,3.00
2022-11-11T04:38:45.833Z,3.10
2022-11-11T04:44:17.645Z,3.30
2022-11-11T04:49:49.204Z,3.35
2022-11-11T04:55:22.268Z,3.50
2022-11-11T05:00:52.852Z,3.55
2022-11-11T05:06:24.559Z,3.65
2022-11-11T05:11:56.510Z,3.90
2022-11-11T05:17:28.075Z,4.00
2022-11-11T05:23:00.098Z,4.15
2022-11-11T05:28:31.814Z,4.20
2022-11-11T05:34:03.558Z,4.30
2022-11-11T05:39:35.433Z,4.35
2022-11-11T05:45:07.041Z,4.40
2022-11-11T05:50:38.929Z,4.45
2022-11-11T05:56:10.402Z,4.75
2022-11-11T06:01:42.187Z,4.80
2022-11-11T06:07:14.338Z,5.00
2022-11-11T06:12:46.583Z,5.20
2022-11-11T06:18:19.176Z,5.40
2022-11-11T06:23:51.078Z,5.50
2022-11-11T06:29:23.501Z,5.55
2022-11-11T06:34:55.548Z,5.75
2022-11-11T06:40:28.063Z,5.90
2022-11-11T06:46:00.058Z,6.00
2022-11-11T06:51:32.082Z,6.10
2022-11-11T06:57:08.377Z,6.20
2022-11-11T07:02:36.724Z,6.35
2022-11-11T07:08:08.934Z,6.45
2022-11-11T07:13:41.088Z,6.45
2022-11-11T07:19:13.380Z,6.50
2022-11-11T07:24:45.629Z,6.60
2022-11-11T07:30:17.851Z,6.60
2022-11-11T07:35:49.841Z,6.75
2022-11-11T07:41:22.552Z,6.85
2022-11-11T07:46:54.991Z,6.90
2022-11-11T07:52:27.106Z,6.95
2022-11-11T07:57:59.506Z,7.05
2022-11-11T08:03:31.458Z,7.30
2022-11-11T08:09:03.347Z,7.35
2022-11-11T08:14:41.735Z,7.45
2022-11-11T08:20:14.004Z,7.45
2022-11-11T08:25:46.262Z,7.45
2022-11-11T08:31:18.454Z,7.55
2022-11-11T08:36:50.653Z,7.75
2022-11-11T08:47:52.895Z,8.00
2022-11-11T08:53:25.339Z,8.10
2022-11-11T08:58:57.223Z,8.25
2022-11-11T09:04:44.325Z,8.35
2022-11-11T09:10:01.449Z,8.45
2022-11-11T09:15:33.277Z,8.60
2022-11-11T09:21:05.257Z,8.65
2022-11-11T09:26:37.521Z,8.85
2022-11-11T09:32:15.180Z,8.95
2022-11-11T09:37:47.550Z,8.95
2022-11-11T09:43:25.746Z,9.00
2022-11-11T09:48:57.467Z,9.05
2022-11-11T09:54:30.001Z,9.20
2022-11-11T10:00:02.010Z,9.30
2022-11-11T10:05:40.005Z,9.60
2022-11-11T10:11:18.204Z,9.75
2022-11-11T10:16:56.204Z,9.80
2022-11-11T10:22:34.285Z,9.90
2022-11-11T10:28:06.524Z,10.05
2022-11-11T10:33:38.791Z,10.05
2022-11-11T10:39:11.974Z,10.10
2022-11-11T10:44:44.101Z,10.20
2022-11-11T10:50:22.239Z,10.30
2022-11-11T10:55:53.885Z,10.50
2022-11-11T11:01:31.676Z,10.50
2022-11-11T11:07:09.576Z,10.60
2022-11-11T11:12:47.061Z,10.70
2022-11-11T11:18:25.208Z,10.80
2022-11-11T11:24:03.522Z,10.80
2022-11-11T11:29:41.255Z,10.85
2022-11-11T11:35:13.516Z,10.95
2022-11-11T11:40:51.150Z,11.05
2022-11-11T11:46:28.870Z,11.10
2022-11-11T11:52:06.920Z,11.15
2022-11-11T11:57:44.767Z,11.15
2022-11-11T12:03:22.409Z,11.15
2022-11-11T12:14:38.308Z,11.30
2022-11-11T12:20:18.277Z,11.40
2022-11-11T12:25:56.513Z,11.50
2022-11-11T12:31:34.863Z,11.55
2022-11-11T12:37:12.947Z,11.75
2022-11-11T12:42:46.496Z,11.75
2022-11-11T12:48:18.302Z,11.75
2022-11-11T12:53:56.269Z,11.75
2022-11-11T12:59:33.971Z,11.80
2022-11-11T13:05:05.967Z,11.95
2022-11-11T13:10:44.401Z,12.10
2022-11-11T13:16:22.366Z,12.20
2022-11-11T13:27:29.832Z,12.40
2022-11-11T13:33:07.966Z,12.45
2022-11-11T13:38:45.890Z,12.50
2022-11-11T13:44:23.665Z,12.60
2022-11-11T13:50:01.071Z,12.85
2022-11-11T13:55:39.439Z,12.90
2022-11-11T14:01:17.462Z,12.90
2022-11-11T14:06:55.611Z,12.95
2022-11-11T14:12:27.463Z,13.10
2022-11-11T14:17:59.610Z,13.30
2022-11-11T14:23:37.953Z,13.35
2022-11-11T14:29:09.997Z,13.50
2022-11-11T14:34:42.284Z,13.60
2022-11-11T14:40:14.739Z,13.65
2022-11-11T14:45:46.872Z,13.70
2022-11-11T14:51:19.000Z,13.75
2022-11-11T14:56:52.944Z,13.90
2022-11-11T15:02:25.079Z,13.95
2022-11-11T15:07:56.760Z,14.05
2022-11-11T15:13:28.600Z,14.15
2022-11-11T15:19:00.681Z,14.20
2022-11-11T15:24:32.696Z,14.25
2022-11-11T15:30:04.857Z,14.35
2022-11-11T15:32:17.749Z,1.00
2022-11-11T15:37:49.536Z,0.50
2022-11-11T15:43:21.963Z,1.97
2022-11-11T15:48:53.916Z,2.21
2022-11-11T15:54:25.791Z,1.97
2022-11-11T15:59:57.315Z,1.80
2022-11-11T16:02:27.798Z,2.00
2022-11-11T16:07:57.705Z,1.97
2022-11-11T16:13:26.695Z,2.62
2022-11-11T16:18:58.604Z,2.70
2022-11-11T16:24:30.442Z,2.55
2022-11-11T16:30:02.307Z,2.45
2022-11-11T16:35:34.126Z,2.66
2022-11-11T16:41:06.438Z,2.33
2022-11-11T16:46:38.578Z,2.29
2022-11-11T16:52:10.866Z,2.16
2022-11-11T16:57:42.696Z,2.05
2022-11-11T17:03:14.555Z,2.20
2022-11-11T17:08:47.005Z,2.11
2022-11-11T17:14:19.009Z,2.03
2022-11-11T17:19:50.971Z,2.15
2022-11-11T17:25:23.123Z,2.14
2022-11-11T17:31:01.780Z,2.13
2022-11-11T17:36:33.750Z,2.12
2022-11-11T17:42:05.962Z,2.06
2022-11-11T17:47:43.375Z,2.10
2022-11-11T17:53:15.385Z,2.25
2022-11-11T17:58:42.590Z,2.25
2022-11-11T18:04:14.423Z,2.30
2022-11-11T18:09:46.387Z,2.30
2022-11-11T18:15:18.780Z,2.35
2022-11-11T18:20:50.641Z,2.40
2022-11-11T18:26:22.817Z,2.50
2022-11-11T18:31:56.460Z,2.70
2022-11-11T18:37:27.597Z,2.70
2022-11-11T18:42:59.434Z,2.85
2022-11-11T18:48:31.390Z,2.85
2022-11-11T18:54:03.568Z,3.00
2022-11-11T18:59:35.188Z,3.15
2022-11-11T19:05:07.038Z,3.25
2022-11-11T19:10:38.965Z,3.25
2022-11-11T19:16:10.518Z,3.30
2022-11-11T19:21:42.678Z,3.40
2022-11-11T19:27:14.413Z,3.55
2022-11-11T19:32:45.946Z,3.75
2022-11-11T19:38:17.608Z,3.80
2022-11-11T19:43:49.458Z,3.80
2022-11-11T19:49:21.481Z,3.80
2022-11-11T19:54:53.230Z,3.85
2022-11-11T20:00:25.088Z,3.95
2022-11-11T20:05:56.651Z,4.25
2022-11-11T20:11:28.592Z,4.25
2022-11-11T20:17:00.172Z,4.30
2022-11-11T20:22:31.970Z,4.45
2022-11-11T20:28:03.632Z,4.50
2022-11-11T20:33:35.536Z,4.60
2022-11-11T20:39:07.346Z,4.70
2022-11-11T20:44:39.028Z,4.85
2022-11-11T20:50:11.029Z,4.95
2022-11-11T20:55:43.068Z,4.95
2022-11-11T21:01:15.925Z,5.05
2022-11-11T21:06:47.603Z,5.15
2022-11-11T21:12:19.529Z,5.30
2022-11-11T21:17:51.421Z,5.35
2022-11-11T21:23:23.965Z,5.35
2022-11-11T21:28:55.479Z,5.50
2022-11-11T21:34:27.134Z,5.65
2022-11-11T21:39:59.627Z,5.80
2022-11-11T21:45:31.991Z,5.80
2022-11-11T21:51:04.153Z,6.00
2022-11-11T21:56:36.178Z,6.15
2022-11-11T22:02:07.875Z,6.30
2022-11-11T22:07:39.975Z,6.40
2022-11-11T22:13:12.196Z,6.55
2022-11-11T22:18:44.879Z,6.60
2022-11-11T22:21:08.904Z,1.97
2022-11-11T22:26:40.822Z,1.97
2022-11-11T22:32:12.460Z,1.64
2022-11-11T22:37:44.399Z,1.96
2022-11-11T22:43:19.765Z,1.96
2022-11-11T22:45:39.754Z,2.95
2022-11-11T22:51:11.062Z,1.97
2022-11-11T22:56:42.845Z,1.64
2022-11-11T23:02:14.688Z,1.48
2022-11-11T23:07:46.580Z,1.18
2022-11-11T23:13:18.491Z,1.31
2022-11-11T23:18:49.976Z,1.12
2022-11-11T23:24:22.185Z,1.10
2022-11-11T23:29:53.539Z,0.98
2022-11-11T23:35:25.288Z,1.08
2022-11-11T23:40:56.706Z,0.98
2022-11-11T23:46:28.423Z,0.98
2022-11-11T23:52:00.377Z,0.98
2022-11-11T23:57:32.015Z,0.91
